Station: Oenpelli Airport  

  Atmospheric Gas Attenuation - ITU Rec 676-11   ----------------- dB/100km -----------------
Date Time Temp RH % AH g/m3 Dew Point Wind Direction Speed kph Gust kph Barometer mB Rainfall Since 9am 24GHz 47GHz 76GHz 122GHz 134GHz 241GHz
04/09 19:00 29.4 57 16.73 20 7 11 1013.7 0 35.7 34.1 63.1 166.8 180.1 625.7
04/09 18:50 29.9 55 16.59 19.9 11 17 1013.4 0 35.4 33.6 62.1 164.1 177.0 615.0
04/09 18:40 30.7 52 16.38 19.7 15 20 1013.2 0 34.9 33.0 60.6 160.2 172.3 598.9
04/09 18:30 31.4 50 16.35 19.7 13 19 1012.9 0 34.8 32.7 59.9 158.4 170.4 592.1
04/09 18:20 31.9 48 16.12 19.5 13 17 1012.9 0 34.3 32.1 58.6 154.9 166.3 577.9
04/09 18:10 32.8 45 15.86 19.3 13 19 1012.8 0 33.7 31.4 56.9 150.5 161.0 559.7
04/09 18:00 34.2 33 12.52 15.6 6 9 1012.7 0 26.7 25.9 43.8 115.4 118.3 410.6
04/09 17:50 34.4 32 12.27 15.3 7 11 1012.6 0 26.2 25.5 42.8 112.9 115.2 399.7
04/09 17:40 34.6 33 12.78 16 9 11 1012.5 0 27.2 26.2 44.5 117.3 120.7 418.9
04/09 17:30 34.9 32 12.59 15.7 9 15 1012.4 0 26.8 25.8 43.6 115.1 118.1 409.8
04/09 17:20 35.1 31 12.33 15.4 6 9 1012.3 0 26.2 25.4 42.6 112.4 114.8 398.6
04/09 17:10 35 31 12.26 15.3 7 11 1012.2 0 26.1 25.3 42.5 111.9 114.2 396.3
04/09 17:00 34.4 31 11.88 14.8 7 11 1012.2 0 25.4 25.0 41.5 109.3 110.8 384.3
04/09 16:50 34.7 31 12.07 15.1 7 13 1012.2 0 25.7 25.2 42.0 110.6 112.5 390.3
04/09 16:40 35.3 30 12.05 15.1 9 13 1012.1 0 25.6 25.0 41.6 109.6 111.4 386.6
04/09 16:30 35.7 30 12.31 15.4 9 17 1012.1 0 26.2 25.2 42.3 111.4 113.8 394.8
04/09 16:20 34.6 31 12.01 15 7 15 1012.1 0 25.6 25.1 41.8 110.2 112.0 388.4
04/09 16:10 36.3 31 13.12 16.5 7 13 1012.1 0 27.8 26.2 44.7 117.9 121.9 423.5
04/09 16:00 36 30 12.5 15.7 7 13 1012.1 0 26.5 25.4 42.7 112.7 115.4 400.7
04/09 15:50 35.1 32 12.72 15.9 6 7 1012.2 0 27.0 25.9 44.0 116.0 119.2 413.9
04/09 15:40 34.4 33 12.65 15.8 4 13 1012.3 0 26.9 26.0 44.1 116.3 119.5 414.7
04/09 15:30 34.9 32 12.59 15.7 9 19 1012.3 0 26.8 25.8 43.6 115.1 118.0 409.8
04/09 15:20 36.1 29 12.14 15.2 11 19 1012.4 0 25.8 24.9 41.5 109.4 111.3 386.4
04/09 15:10 35.9 30 12.43 15.6 7 13 1012.5 0 26.4 25.3 42.6 112.3 114.8 398.6
04/09 15:00 35.7 31 12.72 15.9 6 13 1012.6 0 27.0 25.8 43.7 115.2 118.4 411.0
04/09 14:50 35.5 31 12.58 15.8 7 17 1012.8 0 26.7 25.7 43.3 114.2 117.1 406.5
04/09 14:40 35.8 31 12.78 16 9 19 1012.9 0 27.1 25.9 43.8 115.6 118.9 412.9
04/09 14:30 34.8 32 12.53 15.7 7 15 1013.1 0 26.7 25.8 43.5 114.7 117.6 408.1
04/09 14:20 35.5 32 12.99 16.3 11 24 1013.2 0 27.6 26.2 44.7 118.0 121.8 422.8
04/09 14:10 35 32 12.66 15.8 13 22 1013.4 0 26.9 25.9 43.9 115.7 118.8 412.4
04/09 14:00 35.3 32 12.86 16.1 13 24 1013.5 0 27.3 26.1 44.4 117.1 120.6 418.8
04/09 13:50 35.7 32 13.13 16.4 11 17 1013.7 0 27.8 26.4 45.1 119.0 123.1 427.5
04/09 13:40 34.8 33 12.92 16.1 9 17 1013.9 0 27.5 26.4 44.9 118.4 122.1 423.9
04/09 13:30 35.5 33 13.4 16.8 9 20 1014.2 0 28.4 26.9 46.2 121.9 126.5 439.5
04/09 13:20 34.3 35 13.35 16.6 13 33 1014.3 0 28.4 27.1 46.7 123.2 127.9 444.0
04/09 13:10 34 36 13.51 16.8 9 17 1014.5 0 28.7 27.5 47.5 125.2 130.2 452.3
04/09 13:00 33.6 36 13.23 16.5 15 24 1014.6 0 28.2 27.2 46.7 123.2 127.6 443.1
04/09 12:50 33.8 37 13.74 17.1 11 22 1014.9 0 29.2 27.9 48.4 127.8 133.3 463.1
04/09 12:40 33.4 37 13.46 16.7 11 19 1015.1 0 28.6 27.6 47.7 125.8 130.7 453.8
04/09 12:30 33.8 37 13.74 17.1 15 26 1015.2 0 29.2 27.9 48.5 127.8 133.4 463.2
04/09 12:20 33.1 39 13.96 17.3 7 19 1015.5 0 29.7 28.4 49.7 131.1 137.2 476.6
04/09 12:10 33.2 39 14.04 17.4 6 11 1015.8 0 29.9 28.5 49.9 131.8 138.0 479.4
04/09 12:00 32.5 40 13.87 17.2 11 22 1016.1 0 29.6 28.5 49.8 131.3 137.2 476.5
04/09 11:50 32.1 41 13.92 17.2 6 15 1016.2 0 29.7 28.7 50.2 132.4 138.5 481.1
04/09 11:40 32.4 41 14.14 17.5 9 17 1016.5 0 30.1 29.0 50.8 134.2 140.7 488.8
04/09 11:30 32.4 41 14.14 17.5 15 24 1016.7 0 30.1 29.0 50.9 134.2 140.8 488.8
04/09 11:20 32 41 13.85 17.1 11 20 1016.9 0 29.5 28.7 50.0 132.0 137.9 478.9
04/09 11:10 31.5 43 14.14 17.4 15 24 1017.1 0 30.2 29.3 51.4 135.8 142.4 494.5
04/09 11:00 31.4 44 14.39 17.7 11 19 1017.2 0 30.7 29.7 52.5 138.5 145.7 506.1
04/09 10:50 31.4 45 14.72 18 13 26 1017.4 0 31.4 30.2 53.7 141.9 149.9 520.6
04/09 10:40 30.3 46 14.18 17.4 13 19 1017.5 0 30.3 29.8 52.4 138.3 145.1 503.9
04/09 10:30 31 46 14.72 18 9 20 1017.6 0 31.4 30.4 54.0 142.6 150.7 523.3
04/09 10:20 30.4 50 15.5 18.8 9 20 1017.7 0 33.1 31.8 57.5 151.9 161.9 562.5
04/09 10:10 30.4 49 15.19 18.5 11 20 1017.7 0 32.4 31.3 56.3 148.6 157.9 548.4
04/09 10:00 30.2 48 14.72 18 13 20 1017.8 0 31.5 30.7 54.6 144.1 152.2 528.7
04/09 09:50 30.2 50 15.33 18.6 13 19 1017.8 0 32.7 31.6 57.0 150.5 160.1 556.2
04/09 09:40 29.4 52 15.27 18.5 9 17 1017.9 0 32.7 31.8 57.3 151.4 161.0 559.2
04/09 09:30 29.7 53 15.82 19.1 11 19 1017.9 0 33.8 32.6 59.3 156.7 167.7 582.4
04/09 09:20 29.8 53 15.9 19.2 6 13 1017.9 0 34.0 32.7 59.6 157.4 168.5 585.4
04/09 09:10 29.2 58 16.84 20.1 2 4 1017.8 0 36.0 34.5 64.0 169.0 182.6 634.5
04/09 09:00 28.7 58 16.39 19.6 4 9 1017.8 0 35.1 33.9 62.5 165.0 177.6 616.9
04/09 08:50 28.5 61 17.05 20.2 4 9 1017.7 0 36.5 35.1 65.4 172.9 187.2 650.4
04/09 08:40 28.1 64 17.5 20.6 4 7 1017.7 0 37.5 36.1 67.7 179.0 194.5 675.9
04/09 08:30 27.7 64 17.12 20.3 6 7 1017.7 0 36.7 35.6 66.4 175.5 190.2 660.6
04/09 08:20 26.9 69 17.66 20.7 4 6 1017.7 0 37.9 36.9 69.5 183.7 200.0 694.7
04/09 08:10 26.8 69 17.56 20.6 4 6 1017.6 0 37.7 36.8 69.1 182.7 198.8 690.5
04/09 08:00 26.5 71 17.77 20.8 4 6 1017.6 0 38.2 37.3 70.3 185.9 202.6 703.9
04/09 07:50 25.9 74 17.92 20.9 4 6 1017.5 0 38.6 37.8 71.6 189.2 206.5 717.1
04/09 07:40 25.5 76 17.99 21 0 0 1017.4 0 38.7 38.1 72.3 191.0 208.6 724.5
04/09 07:30 25 79 18.19 21.1 0 0 1017.3 0 39.2 38.7 73.6 194.7 213.0 739.7
04/09 07:20 23.5 86 18.19 21 0 0 1017.2 0 39.4 39.4 75.1 198.6 217.3 754.5
04/09 07:10 22.9 87 17.78 20.6 0 0 1017.1 0 38.6 38.9 73.8 195.0 212.7 738.3
04/09 07:00 22.9 86 17.57 20.4 0 0 1017 0 38.1 38.5 72.8 192.3 209.4 726.9
04/09 06:50 23.1 84 17.36 20.2 2 4 1016.8 0 37.6 38.0 71.6 189.2 205.6 713.8
04/09 06:40 23.5 83 17.55 20.4 4 6 1016.7 0 38.0 38.2 72.1 190.5 207.4 720.0
04/09 06:30 23.6 83 17.65 20.5 6 6 1016.6 0 38.2 38.3 72.4 191.5 208.6 724.3
04/09 06:20 23.9 82 17.74 20.6 4 6 1016.4 0 38.4 38.3 72.6 191.8 209.1 726.1
04/09 06:10 23.9 82 17.74 20.6 4 7 1016.2 0 38.4 38.3 72.5 191.8 209.1 726.0
04/09 06:00 24.1 81 17.72 20.6 6 9 1016.1 0 38.3 38.2 72.3 191.0 208.2 723.0
04/09 05:50 23.9 82 17.74 20.6 6 9 1016 0 38.4 38.3 72.5 191.8 209.1 725.9
04/09 05:40 23.9 81 17.52 20.4 6 7 1015.9 0 37.9 37.9 71.5 189.0 205.7 714.2
04/09 05:30 23.9 81 17.52 20.4 7 9 1015.7 0 37.9 37.9 71.5 189.0 205.7 714.1
04/09 05:20 23.9 81 17.52 20.4 9 13 1015.6 0 37.9 37.9 71.5 189.0 205.7 714.1
04/09 05:10 24.1 80 17.5 20.4 9 13 1015.4 0 37.8 37.7 71.2 188.2 204.8 711.1
04/09 05:00 24.1 80 17.5 20.4 9 13 1015.4 0 37.8 37.7 71.2 188.2 204.8 711.1
04/09 04:50 24.1 81 17.72 20.6 7 11 1015.3 0 38.3 38.1 72.2 190.9 208.1 722.6
04/09 04:40 24.2 81 17.82 20.7 6 9 1015.3 0 38.5 38.3 72.6 191.9 209.3 726.9
04/09 04:30 24.1 82 17.94 20.8 6 7 1015.2 0 38.8 38.5 73.2 193.6 211.4 734.2
04/09 04:20 24.3 82 18.15 21 6 7 1015.2 0 39.2 38.8 74.0 195.7 214.1 743.4
04/09 04:10 24.4 82 18.25 21.1 7 9 1015.2 0 39.4 39.0 74.4 196.7 215.3 747.7
04/09 04:00 24.6 82 18.46 21.3 9 13 1015.2 0 39.8 39.3 75.2 198.8 217.9 756.9
04/09 03:50 24.6 82 18.46 21.3 9 13 1015.2 0 39.8 39.3 75.2 198.8 217.9 756.9
04/09 03:40 24.6 83 18.68 21.5 11 19 1015.3 0 40.3 39.7 76.2 201.6 221.3 768.7
04/09 03:30 24.8 82 18.66 21.5 13 20 1015.2 0 40.2 39.6 75.9 200.8 220.4 765.6
04/09 03:20 24.9 82 18.77 21.6 9 15 1015.2 0 40.5 39.7 76.3 201.9 221.8 770.5
04/09 03:10 25 82 18.88 21.7 11 15 1015.3 0 40.7 39.9 76.8 203.0 223.2 775.4
04/09 03:00 25 82 18.88 21.7 11 19 1015.3 0 40.7 39.9 76.8 203.0 223.2 775.4
04/09 02:50 25.1 82 18.98 21.8 11 13 1015.4 0 40.9 40.0 77.1 204.0 224.5 779.8
04/09 02:40 24.9 83 19 21.8 7 9 1015.5 0 41.0 40.2 77.4 204.8 225.4 783.0
04/09 02:30 24.6 85 19.13 21.9 6 11 1015.6 0 41.3 40.6 78.4 207.3 228.4 793.2

Last Refresh: 04-Sep-2026 19:13:44

Bureau of Meteorology